Time;durP1;ratioP1;P1;durP2;ratioP2;P2;SDS_P1;SDS_P2;PMS_P1;PMS_P2;Temp;Humidity;BMP_temperature;BMP_pressure;BME280_temperature;BME280_humidity;BME280_pressure;Samples;Min_cycle;Max_cycle;Signal;HPM_P1;HPM_P2
2022/09/16 00:02:05;;;;;;;;;;;;;;;13.75;95.34;98787.75;8347776;28;19924;-78
2022/09/16 00:06:13;;;;;;;;;;;;;;;13.78;95.45;98798.09;8342412;28;19925;-79
2022/09/16 00:10:15;;;;;;;;;;;;;;;13.81;95.80;98800.63;8342303;28;20658;-78
2022/09/16 00:14:22;;;;;;;;;;;;;;;13.82;95.34;98796.25;8355291;28;19932;-78
2022/09/16 00:18:24;;;;;;;;;;;;;;;13.81;95.11;98800.63;8351403;28;19925;-79
2022/09/16 00:22:32;;;;;;;;;;;;;;;13.78;94.98;98799.84;8353663;28;20552;-79
2022/09/16 00:26:33;;;;;;;;;;;;;;;13.76;95.41;98801.66;8347434;28;19925;-79
2022/09/16 00:30:41;;;;;;;;;;;;;;;13.75;95.54;98799.94;8355338;28;20298;-78
2022/09/16 00:34:42;;;;;;;;;;;;;;;13.79;95.85;98805.03;8358634;28;19924;-79
2022/09/16 00:38:44;;;;;;;;;;;;;;;13.85;96.34;98807.50;8356055;28;20020;-78
2022/09/16 00:42:45;;;;;;;;;;;;;;;13.86;95.90;98803.97;8357460;28;19954;-79
2022/09/16 00:46:48;;;;;;;;;;;;;;;13.88;95.81;98799.56;8338440;28;19991;-79
2022/09/16 00:50:59;;;;;;;;;;;;;;;13.91;95.56;98789.03;8350065;28;19970;-79
2022/09/16 00:55:02;;;;;;;;;;;;;;;13.91;95.18;98791.66;8342462;28;19958;-79
2022/09/16 00:59:18;;;;;;;;;;;;;;;13.93;94.81;98799.44;8361158;28;19929;-78
2022/09/16 01:03:27;;;;;;;;;;;;;;;13.95;95.35;98789.81;8344749;28;20238;-78
2022/09/16 01:07:32;;;;;;;;;;;;;;;14.01;95.17;98794.03;8353024;28;20007;-79
2022/09/16 01:11:39;;;;;;;;;;;;;;;14.06;94.84;98798.22;8347100;28;20324;-78
2022/09/16 01:16:28;;;;;;;;;;;;;;;14.04;94.81;98791.31;8355250;28;19932;-78
2022/09/16 01:21:32;;;;;;;;;;;;;;;13.98;94.97;98801.91;8351970;28;20491;-78
2022/09/16 01:25:52;;;;;;;;;;;;;;;13.98;95.38;98805.38;8299921;28;20469;-78
2022/09/16 01:30:03;;;;;;;;;;;;;;;13.98;95.52;98800.16;8350166;28;19925;-78
2022/09/16 01:34:04;;;;;;;;;;;;;;;14.00;94.89;98800.97;8337461;28;19924;-78
2022/09/16 01:38:19;;;;;;;;;;;;;;;14.02;95.32;98798.34;8350485;28;19924;-79
2022/09/16 01:42:26;;;;;;;;;;;;;;;14.02;95.77;98800.97;8344135;28;19925;-78
2022/09/16 01:46:30;;;;;;;;;;;;;;;14.00;95.81;98789.66;8336255;28;19925;-79
2022/09/16 01:50:36;;;;;;;;;;;;;;;14.02;95.80;98800.97;8362082;28;20493;-78
2022/09/16 01:54:56;;;;;;;;;;;;;;;14.05;95.78;98798.25;8346081;28;19936;-78
2022/09/16 01:59:03;;;;;;;;;;;;;;;14.06;95.54;98802.56;8358693;28;20575;-78
2022/09/16 02:03:10;;;;;;;;;;;;;;;14.07;95.77;98797.31;8359525;28;19920;-79
2022/09/16 02:07:14;;;;;;;;;;;;;;;14.05;95.43;98793.88;8353688;28;19983;-78
2022/09/16 02:11:17;;;;;;;;;;;;;;;14.00;94.78;98790.53;8357856;28;20269;-78
2022/09/16 02:15:26;;;;;;;;;;;;;;;13.98;95.01;98797.53;8346637;28;19946;-79
2022/09/16 02:19:42;;;;;;;;;;;;;;;13.95;94.29;98787.19;8358856;28;19982;-79
2022/09/16 02:23:45;;;;;;;;;;;;;;;13.94;94.91;98797.69;8354883;28;20281;-78
2022/09/16 02:27:48;;;;;;;;;;;;;;;13.94;94.68;98795.06;8365565;28;20360;-78
2022/09/16 02:31:50;;;;;;;;;;;;;;;13.97;94.12;98801.06;8356051;28;19983;-79
2022/09/16 02:35:56;;;;;;;;;;;;;;;13.99;92.96;98801.88;8343016;28;20389;-79
2022/09/16 02:40:01;;;;;;;;;;;;;;;13.96;92.81;98799.34;8366112;28;19928;-79
2022/09/16 02:44:03;;;;;;;;;;;;;;;13.94;92.12;98793.31;8365396;28;19940;-79
2022/09/16 02:48:12;;;;;;;;;;;;;;;13.96;92.16;98798.50;8344986;28;19931;-79
2022/09/16 02:52:20;;;;;;;;;;;;;;;13.95;91.42;98788.94;8357215;28;19978;-78
2022/09/16 02:56:22;;;;;;;;;;;;;;;13.95;91.08;98784.59;8359158;28;19928;-78
2022/09/16 03:00:24;;;;;;;;;;;;;;;13.89;90.75;98779.56;8339931;28;19920;-79
2022/09/16 03:04:27;;;;;;;;;;;;;;;13.88;90.74;98780.44;8355837;28;19964;-78
2022/09/16 03:08:28;;;;;;;;;;;;;;;13.90;90.53;98782.13;8342268;28;20435;-78
2022/09/16 03:12:33;;;;;;;;;;;;;;;13.90;91.18;98787.34;8340315;28;19994;-79
2022/09/16 03:16:52;;;;;;;;;;;;;;;13.90;90.63;98782.13;8327288;28;19924;-79
2022/09/16 03:21:30;;;;;;;;;;;;;;;13.85;90.70;98789.22;8336092;28;19928;-79
2022/09/16 03:25:43;;;;;;;;;;;;;;;13.76;92.07;98784.25;8335062;28;19929;-79
2022/09/16 03:30:04;;;;;;;;;;;;;;;13.78;92.55;98782.44;8362517;28;20241;-78
2022/09/16 03:34:11;;;;;;;;;;;;;;;13.81;92.13;98781.50;8329039;28;19925;-78
2022/09/16 03:38:13;;;;;;;;;;;;;;;13.81;91.52;98776.28;8350297;28;19990;-78
2022/09/16 03:42:16;;;;;;;;;;;;;;;13.83;91.47;98780.59;8346177;28;19921;-78
2022/09/16 03:46:17;;;;;;;;;;;;;;;13.81;90.96;98784.09;8330211;28;20335;-79
2022/09/16 03:50:19;;;;;;;;;;;;;;;13.78;91.15;98776.38;8357061;28;20731;-78
2022/09/16 03:54:21;;;;;;;;;;;;;;;13.78;90.57;98786.81;8349150;28;19924;-78
2022/09/16 03:58:22;;;;;;;;;;;;;;;13.83;89.97;98784.94;8352437;28;19982;-78
2022/09/16 04:02:23;;;;;;;;;;;;;;;13.84;90.09;98789.25;8341500;28;19920;-79
2022/09/16 04:06:25;;;;;;;;;;;;;;;13.83;89.64;98788.41;8347852;28;20590;-78
2022/09/16 04:10:26;;;;;;;;;;;;;;;13.85;89.79;98786.63;8361397;28;19966;-78
2022/09/16 04:14:27;;;;;;;;;;;;;;;13.86;89.16;98779.63;8358075;28;19921;-79
2022/09/16 04:18:29;;;;;;;;;;;;;;;13.83;88.99;98779.72;8333354;28;19960;-78
2022/09/16 04:22:37;;;;;;;;;;;;;;;13.80;88.74;98779.78;8355414;28;20428;-78
2022/09/16 04:26:39;;;;;;;;;;;;;;;13.74;87.73;98786.03;8349870;28;19974;-78
2022/09/16 04:30:40;;;;;;;;;;;;;;;13.74;87.23;98778.22;8351890;28;19928;-78
2022/09/16 04:34:42;;;;;;;;;;;;;;;13.80;86.65;98775.41;8354123;28;19928;-79
2022/09/16 04:38:44;;;;;;;;;;;;;;;13.79;86.95;98781.53;8361871;28;19971;-78
2022/09/16 04:42:49;;;;;;;;;;;;;;;13.77;86.82;98778.13;8362774;28;19933;-79
2022/09/16 04:46:50;;;;;;;;;;;;;;;13.75;86.03;98777.31;8352984;28;19925;-78
2022/09/16 04:50:52;;;;;;;;;;;;;;;13.74;84.98;98780.81;8360275;28;19924;-79
2022/09/16 04:54:53;;;;;;;;;;;;;;;13.77;84.79;98782.47;8349972;28;19928;-78
2022/09/16 04:58:59;;;;;;;;;;;;;;;13.75;84.47;98781.66;8364044;28;19924;-79
2022/09/16 05:03:01;;;;;;;;;;;;;;;13.72;83.25;98785.22;8349980;28;19975;-79
2022/09/16 05:07:09;;;;;;;;;;;;;;;13.72;84.02;98785.22;8348799;28;20361;-79
2022/09/16 05:11:12;;;;;;;;;;;;;;;13.66;84.53;98788.00;8357043;28;19924;-78
2022/09/16 05:15:13;;;;;;;;;;;;;;;13.65;84.69;98785.44;8349486;28;19933;-80
2022/09/16 05:19:15;;;;;;;;;;;;;;;13.65;85.18;98790.66;8354290;28;19982;-79
2022/09/16 05:23:16;;;;;;;;;;;;;;;13.60;84.22;98790.75;8326574;28;19978;-79
2022/09/16 05:27:26;;;;;;;;;;;;;;;13.59;84.83;98792.50;8368018;28;19925;-79
2022/09/16 05:31:29;;;;;;;;;;;;;;;13.57;85.12;98798.66;8341987;28;19980;-79
2022/09/16 05:35:30;;;;;;;;;;;;;;;13.56;84.41;98791.75;8349909;28;19970;-80
2022/09/16 05:39:32;;;;;;;;;;;;;;;13.59;84.26;98796.88;8335652;28;19964;-78
2022/09/16 05:43:40;;;;;;;;;;;;;;;13.62;84.02;98802.00;8349836;28;20341;-79
2022/09/16 05:47:46;;;;;;;;;;;;;;;13.65;83.04;98809.78;8352033;28;19951;-79
2022/09/16 05:51:54;;;;;;;;;;;;;;;13.67;83.46;98809.72;8353380;28;19921;-79
2022/09/16 05:55:56;;;;;;;;;;;;;;;13.73;83.03;98814.78;8354046;28;19920;-79
2022/09/16 05:59:58;;;;;;;;;;;;;;;13.74;81.47;98812.13;8357556;28;19924;-79
2022/09/16 06:04:00;;;;;;;;;;;;;;;13.80;82.51;98808.50;8333270;28;20516;-79
2022/09/16 06:08:08;;;;;;;;;;;;;;;13.84;82.78;98803.16;8349353;28;19924;-80
2022/09/16 06:12:10;;;;;;;;;;;;;;;13.86;82.22;98800.50;8336724;28;19921;-80
2022/09/16 06:16:17;;;;;;;;;;;;;;;13.90;81.93;98810.81;8352977;28;19986;-80
2022/09/16 06:20:19;;;;;;;;;;;;;;;13.95;82.44;98821.13;8337184;28;20489;-80
2022/09/16 06:24:21;;;;;;;;;;;;;;;14.04;82.36;98825.25;8361986;28;19924;-80
2022/09/16 06:28:22;;;;;;;;;;;;;;;14.11;82.26;98825.03;8339702;28;19936;-80
2022/09/16 06:32:31;;;;;;;;;;;;;;;14.26;81.53;98821.16;8331779;28;20592;-80
2022/09/16 06:36:38;;;;;;;;;;;;;;;14.51;80.96;98809.09;8351400;28;19928;-80
2022/09/16 06:40:45;;;;;;;;;;;;;;;14.61;80.42;98816.69;8351814;28;20705;-78
2022/09/16 06:44:47;;;;;;;;;;;;;;;14.64;79.43;98819.19;8366140;28;19964;-80
2022/09/16 06:48:52;;;;;;;;;;;;;;;14.64;78.09;98822.66;8349804;28;19921;-81
2022/09/16 06:52:53;;;;;;;;;;;;;;;14.64;78.16;98822.66;8343200;28;20384;-80
2022/09/16 06:56:55;;;;;;;;;;;;;;;14.58;77.46;98822.00;8330661;28;20048;-80
2022/09/16 07:01:04;;;;;;;;;;;;;;;14.55;77.96;98822.97;8354675;28;19929;-81
2022/09/16 07:05:07;;;;;;;;;;;;;;;14.52;77.88;98823.88;8325346;28;19932;-81
2022/09/16 07:09:26;;;;;;;;;;;;;;;14.51;76.79;98832.63;8353214;28;19974;-81
2022/09/16 07:13:43;;;;;;;;;;;;;;;14.48;76.77;98829.25;8356077;28;20371;-81
2022/09/16 07:17:46;;;;;;;;;;;;;;;14.38;76.13;98826.03;8301301;28;19925;-81
2022/09/16 07:21:53;;;;;;;;;;;;;;;14.43;75.16;98831.09;8357383;28;19925;-81
2022/09/16 07:26:07;;;;;;;;;;;;;;;14.55;75.14;98828.19;8338516;28;20003;-81
2022/09/16 07:30:17;;;;;;;;;;;;;;;14.69;74.51;98830.34;8365555;28;19925;-80
2022/09/16 07:34:21;;;;;;;;;;;;;;;14.78;73.38;98846.63;8337748;28;19960;-80
2022/09/16 07:38:30;;;;;;;;;;;;;;;14.91;72.94;98841.91;8359145;28;19921;-80
2022/09/16 07:42:32;;;;;;;;;;;;;;;15.04;72.22;98842.34;8341372;28;20023;-80
2022/09/16 07:46:34;;;;;;;;;;;;;;;15.14;69.75;98845.53;8352225;28;19964;-81
2022/09/16 07:50:36;;;;;;;;;;;;;;;15.25;68.58;98844.28;8366225;28;19959;-80
2022/09/16 07:54:38;;;;;;;;;;;;;;;15.71;67.27;98850.66;8362462;28;19931;-80
2022/09/16 07:58:43;;;;;;;;;;;;;;;16.07;64.91;98848.53;8356763;28;19975;-81
2022/09/16 08:02:44;;;;;;;;;;;;;;;16.30;64.89;98866.03;8354889;28;19987;-80
2022/09/16 08:06:46;;;;;;;;;;;;;;;16.44;63.63;98863.78;8337393;28;20322;-80
2022/09/16 08:10:53;;;;;;;;;;;;;;;16.56;64.04;98865.97;8353405;28;19935;-80
2022/09/16 08:14:55;;;;;;;;;;;;;;;16.67;63.70;98865.56;8354827;28;19935;-80
2022/09/16 08:18:57;;;;;;;;;;;;;;;16.60;62.28;98867.56;8340722;28;19931;-81
2022/09/16 08:23:00;;;;;;;;;;;;;;;16.57;61.63;98869.44;8361735;28;19935;-81
2022/09/16 08:27:02;;;;;;;;;;;;;;;16.47;61.69;98873.28;8359774;28;20054;-80
2022/09/16 08:31:04;;;;;;;;;;;;;;;16.41;61.14;98874.38;8336154;28;19988;-80
2022/09/16 08:35:07;;;;;;;;;;;;;;;16.39;62.26;98870.13;8360299;28;20007;-80
2022/09/16 08:39:13;;;;;;;;;;;;;;;16.41;62.91;98870.91;8340681;28;19925;-81
2022/09/16 08:43:35;;;;;;;;;;;;;;;16.48;63.69;98875.84;8342796;28;19928;-80
2022/09/16 08:47:49;;;;;;;;;;;;;;;16.76;62.62;98873.13;8359244;28;19963;-80
2022/09/16 08:51:51;;;;;;;;;;;;;;;17.00;61.64;98875.69;8355396;28;20463;-80
2022/09/16 08:56:01;;;;;;;;;;;;;;;17.31;60.23;98881.47;8361069;28;19978;-80
2022/09/16 09:00:06;;;;;;;;;;;;;;;17.64;57.26;98878.41;8359137;28;20835;-80
2022/09/16 09:04:07;;;;;;;;;;;;;;;17.75;56.57;98876.19;8359550;28;19920;-81
2022/09/16 09:08:19;;;;;;;;;;;;;;;17.86;57.10;98879.22;8365842;28;20839;-80
2022/09/16 09:12:37;;;;;;;;;;;;;;;17.89;56.81;98873.84;8352397;28;19929;-80
2022/09/16 09:16:57;;;;;;;;;;;;;;;17.97;57.48;98878.78;8344848;28;19925;-80
2022/09/16 09:21:17;;;;;;;;;;;;;;;17.92;56.58;98881.59;8367791;28;19981;-81
2022/09/16 09:25:21;;;;;;;;;;;;;;;17.92;55.16;98880.72;8345934;28;20447;-81
2022/09/16 09:29:49;;;;;;;;;;;;;;;17.95;56.22;98883.22;8368727;28;20407;-81
2022/09/16 09:33:51;;;;;;;;;;;;;;;18.09;54.27;98881.72;8342496;28;19979;-81
2022/09/16 09:38:08;;;;;;;;;;;;;;;18.26;54.74;98880.13;8338216;28;19921;-81
2022/09/16 09:42:44;;;;;;;;;;;;;;;18.22;53.60;98875.94;8346463;28;20007;-81
2022/09/16 09:46:52;;;;;;;;;;;;;;;18.50;54.18;98873.81;8313019;28;19928;-81
2022/09/16 09:50:55;;;;;;;;;;;;;;;19.00;51.85;98860.13;8343944;28;19929;-81
2022/09/16 09:55:00;;;;;;;;;;;;;;;19.39;51.26;98880.19;8342903;28;20266;-81
2022/09/16 09:59:11;;;;;;;;;;;;;;;19.35;51.27;98876.03;8359711;28;19954;-81
2022/09/16 10:03:15;;;;;;;;;;;;;;;18.85;50.22;98872.25;8346792;28;19928;-80
2022/09/16 10:07:18;;;;;;;;;;;;;;;18.45;51.53;98885.44;8342741;28;19928;-80
2022/09/16 10:11:21;;;;;;;;;;;;;;;18.16;51.27;98876.22;8355264;28;19933;-80
2022/09/16 10:15:29;;;;;;;;;;;;;;;18.16;51.73;98863.94;8354655;28;19920;-79
2022/09/16 10:19:34;;;;;;;;;;;;;;;18.62;51.71;98864.50;8351829;28;19928;-80
2022/09/16 10:23:56;;;;;;;;;;;;;;;19.11;49.05;98855.22;8350980;28;20384;-80
2022/09/16 10:28:05;;;;;;;;;;;;;;;19.64;48.46;98856.19;8349994;28;20015;-81
2022/09/16 10:32:18;;;;;;;;;;;;;;;19.67;46.96;98862.16;8331265;28;19920;-81
2022/09/16 10:36:27;;;;;;;;;;;;;;;19.59;46.76;98856.44;8339292;28;19932;-81
2022/09/16 10:40:29;;;;;;;;;;;;;;;19.15;46.84;98851.50;8339407;28;20277;-81
2022/09/16 10:44:32;;;;;;;;;;;;;;;18.81;48.48;98856.66;8340017;28;19955;-81
2022/09/16 10:48:34;;;;;;;;;;;;;;;18.58;50.04;98857.69;8311545;28;19924;-79
2022/09/16 10:52:43;;;;;;;;;;;;;;;18.31;50.62;98867.66;8324678;28;19925;-79
2022/09/16 10:56:51;;;;;;;;;;;;;;;18.15;51.87;98874.53;8320904;28;20274;-79
2022/09/16 11:01:11;;;;;;;;;;;;;;;17.99;51.66;98872.53;8327621;28;19943;-80
2022/09/16 11:05:24;;;;;;;;;;;;;;;17.93;50.58;98869.31;8311882;28;20714;-79
2022/09/16 11:09:46;;;;;;;;;;;;;;;17.96;51.40;98870.06;8323219;28;19925;-79
2022/09/16 11:14:00;;;;;;;;;;;;;;;18.08;51.53;98874.75;8304152;28;20037;-79
2022/09/16 11:18:15;;;;;;;;;;;;;;;18.27;47.96;98873.97;8314928;28;19984;-79
2022/09/16 11:22:35;;;;;;;;;;;;;;;18.23;47.28;98870.63;8316696;28;20367;-79
2022/09/16 11:26:56;;;;;;;;;;;;;;;18.31;47.88;98878.16;8324700;28;19932;-79
2022/09/16 11:31:18;;;;;;;;;;;;;;;18.37;46.93;98875.28;8299728;28;19983;-79
2022/09/16 11:35:44;;;;;;;;;;;;;;;18.42;47.69;98882.03;8341572;28;19920;-79
2022/09/16 11:39:45;;;;;;;;;;;;;;;18.81;47.72;98868.03;8353493;28;20360;-79
2022/09/16 11:43:47;;;;;;;;;;;;;;;19.29;46.76;98870.13;8333793;28;19975;-80
2022/09/16 11:48:08;;;;;;;;;;;;;;;19.32;45.55;98862.09;8333954;28;20714;-79
2022/09/16 11:52:24;;;;;;;;;;;;;;;19.04;45.34;98868.75;8326813;28;20375;-80
2022/09/16 11:56:32;;;;;;;;;;;;;;;18.88;46.11;98858.94;8358831;28;19928;-79
2022/09/16 12:00:41;;;;;;;;;;;;;;;18.74;47.39;98858.72;8353154;28;19925;-80
2022/09/16 12:04:45;;;;;;;;;;;;;;;18.71;47.51;98856.25;8336963;28;20310;-80
2022/09/16 12:08:46;;;;;;;;;;;;;;;18.74;47.98;98863.13;8352807;28;19974;-80
2022/09/16 12:12:51;;;;;;;;;;;;;;;18.61;47.64;98860.16;8359888;28;19984;-79
2022/09/16 12:16:55;;;;;;;;;;;;;;;18.55;48.16;98865.72;8330105;28;19943;-80
2022/09/16 12:21:13;;;;;;;;;;;;;;;18.48;46.10;98853.75;8357552;28;19947;-79
2022/09/16 12:25:26;;;;;;;;;;;;;;;18.46;47.23;98858.22;8348280;28;19974;-80
2022/09/16 12:29:34;;;;;;;;;;;;;;;18.71;47.25;98846.56;8355343;28;19943;-78
2022/09/16 12:33:48;;;;;;;;;;;;;;;19.01;47.68;98846.91;8350452;28;19921;-80
2022/09/16 12:37:58;;;;;;;;;;;;;;;19.27;47.31;98845.66;8341765;28;20465;-80
2022/09/16 12:41:59;;;;;;;;;;;;;;;19.42;46.58;98845.84;8359794;28;19924;-80
2022/09/16 12:46:14;;;;;;;;;;;;;;;19.42;45.55;98841.44;8359023;28;19924;-80
2022/09/16 12:50:42;;;;;;;;;;;;;;;19.53;45.32;98839.09;8380781;28;19981;-79
2022/09/16 12:54:49;;;;;;;;;;;;;;;19.74;45.30;98831.94;8375590;28;19924;-80
2022/09/16 12:59:18;;;;;;;;;;;;;;;19.61;46.26;98834.34;8365013;28;20689;-80
2022/09/16 13:03:29;;;;;;;;;;;;;;;19.50;45.99;98839.25;8363520;28;19924;-79
2022/09/16 13:07:33;;;;;;;;;;;;;;;19.43;46.41;98842.28;8362302;28;19925;-79
2022/09/16 13:11:34;;;;;;;;;;;;;;;19.27;45.85;98845.66;8373918;28;20274;-79
2022/09/16 13:15:56;;;;;;;;;;;;;;;19.22;47.33;98839.78;8324932;28;19959;-80
2022/09/16 13:20:14;;;;;;;;;;;;;;;19.22;46.40;98834.50;8350990;28;19925;-80
2022/09/16 13:24:21;;;;;;;;;;;;;;;19.45;47.29;98830.75;8380421;28;20532;-79
2022/09/16 13:28:34;;;;;;;;;;;;;;;19.49;45.73;98832.28;8336863;28;19972;-79
2022/09/16 13:32:45;;;;;;;;;;;;;;;19.13;45.49;98849.88;8360012;28;20256;-79
2022/09/16 13:36:46;;;;;;;;;;;;;;;18.61;47.96;98873.31;8356831;28;20419;-79
2022/09/16 13:40:58;;;;;;;;;;;;;;;17.94;53.20;98890.25;8360554;28;19932;-79
2022/09/16 13:45:00;;;;;;;;;;;;;;;17.30;60.45;98887.63;8356472;28;19933;-78
2022/09/16 13:49:01;;;;;;;;;;;;;;;16.67;64.02;98869.97;8377951;28;19929;-80
2022/09/16 13:53:10;;;;;;;;;;;;;;;16.33;65.70;98856.31;8364448;28;19971;-80
2022/09/16 13:57:14;;;;;;;;;;;;;;;16.26;67.97;98861.84;8353690;28;19924;-79
2022/09/16 14:01:28;;;;;;;;;;;;;;;16.33;68.75;98851.06;8355409;28;19924;-80
2022/09/16 14:06:08;;;;;;;;;;;;;;;16.60;71.27;98838.72;8369266;28;19927;-80
2022/09/16 14:10:23;;;;;;;;;;;;;;;16.85;72.25;98837.81;8357757;28;19937;-78
2022/09/16 14:14:34;;;;;;;;;;;;;;;17.04;70.51;98823.06;8348503;28;19950;-79
2022/09/16 14:19:02;;;;;;;;;;;;;;;17.10;69.47;98822.84;8352356;28;19932;-79
2022/09/16 14:23:12;;;;;;;;;;;;;;;17.26;67.88;98817.81;8349674;28;19924;-79
2022/09/16 14:27:33;;;;;;;;;;;;;;;17.41;67.76;98822.41;8352688;28;19925;-80
2022/09/16 14:31:35;;;;;;;;;;;;;;;17.58;68.20;98818.25;8362110;28;19933;-80
2022/09/16 14:35:37;;;;;;;;;;;;;;;17.46;66.11;98824.88;8348300;28;20416;-80
2022/09/16 14:39:45;;;;;;;;;;;;;;;17.12;64.66;98847.22;8357952;28;20317;-78
2022/09/16 14:43:47;;;;;;;;;;;;;;;16.89;64.47;98861.25;8339038;28;19925;-79
2022/09/16 14:47:51;;;;;;;;;;;;;;;16.57;67.94;98865.06;8333868;28;19935;-77
2022/09/16 14:51:57;;;;;;;;;;;;;;;16.10;68.32;98873.75;8348186;28;19979;-77
2022/09/16 14:55:58;;;;;;;;;;;;;;;15.59;68.60;98862.38;8322166;28;19935;-77
2022/09/16 15:00:12;;;;;;;;;;;;;;;15.36;72.01;98854.41;8332378;28;19929;-77
2022/09/16 15:04:17;;;;;;;;;;;;;;;15.11;73.36;98860.44;8360693;28;19960;-78
2022/09/16 15:08:29;;;;;;;;;;;;;;;14.94;74.91;98872.31;8349338;28;19967;-79
2022/09/16 15:12:33;;;;;;;;;;;;;;;14.90;77.09;98876.78;8349461;28;20421;-79
2022/09/16 15:16:39;;;;;;;;;;;;;;;14.95;78.24;98882.72;8335411;28;19924;-79
2022/09/16 15:20:41;;;;;;;;;;;;;;;14.97;77.24;98878.31;8348021;28;19925;-79
2022/09/16 15:24:42;;;;;;;;;;;;;;;15.00;76.35;98880.81;8345732;28;20003;-80
2022/09/16 15:28:51;;;;;;;;;;;;;;;14.97;75.76;98885.28;8339655;28;19959;-80
2022/09/16 15:32:53;;;;;;;;;;;;;;;14.80;71.87;98891.88;8340837;28;19927;-79
2022/09/16 15:36:55;;;;;;;;;;;;;;;14.73;72.52;98881.66;8325886;28;20398;-79
2022/09/16 15:41:04;;;;;;;;;;;;;;;14.60;72.57;98883.75;8335968;28;19987;-79
2022/09/16 15:45:12;;;;;;;;;;;;;;;14.54;73.86;98894.38;8345757;28;20622;-79
2022/09/16 15:49:23;;;;;;;;;;;;;;;14.35;72.19;98885.31;8342898;28;20298;-78
2022/09/16 15:53:30;;;;;;;;;;;;;;;14.28;73.04;98878.56;8328743;28;19932;-77
2022/09/16 15:57:36;;;;;;;;;;;;;;;14.28;74.51;98876.78;8330712;28;19929;-78
2022/09/16 16:01:46;;;;;;;;;;;;;;;14.86;74.51;98867.28;8350098;28;19986;-78
2022/09/16 16:05:53;;;;;;;;;;;;;;;15.59;75.33;98869.38;8352829;28;19940;-79
2022/09/16 16:10:09;;;;;;;;;;;;;;;16.08;73.01;98878.19;8347161;28;19955;-79
2022/09/16 16:14:11;;;;;;;;;;;;;;;15.86;72.57;98884.19;8323256;28;20353;-79
2022/09/16 16:18:12;;;;;;;;;;;;;;;15.60;73.96;98894.66;8350285;28;20367;-79
2022/09/16 16:22:20;;;;;;;;;;;;;;;15.35;75.35;98895.41;8364048;28;19986;-79
2022/09/16 16:26:22;;;;;;;;;;;;;;;15.11;74.36;98904.03;8359562;28;19929;-78
2022/09/16 16:30:23;;;;;;;;;;;;;;;14.82;74.49;98916.19;8358539;28;19924;-79
2022/09/16 16:34:25;;;;;;;;;;;;;;;14.65;75.85;98921.06;8325682;28;19932;-79
2022/09/16 16:38:32;;;;;;;;;;;;;;;14.49;76.57;98922.38;8311249;28;19935;-78
2022/09/16 16:42:34;;;;;;;;;;;;;;;14.32;77.48;98935.00;8335521;28;19921;-79
2022/09/16 16:46:36;;;;;;;;;;;;;;;14.19;76.84;98931.91;8326707;28;20860;-78
2022/09/16 16:50:38;;;;;;;;;;;;;;;14.13;78.34;98940.72;8325602;28;19933;-79
2022/09/16 16:54:42;;;;;;;;;;;;;;;14.05;78.50;98932.25;8324346;28;19990;-79
2022/09/16 16:58:43;;;;;;;;;;;;;;;13.94;78.60;98930.78;8314907;28;19928;-79
2022/09/16 17:02:44;;;;;;;;;;;;;;;13.84;78.93;98935.41;8295658;28;19956;-78
2022/09/16 17:06:47;;;;;;;;;;;;;;;13.75;78.40;98951.28;8329138;28;19925;-79
2022/09/16 17:11:18;;;;;;;;;;;;;;;13.66;79.07;98946.28;8305706;28;19925;-79
2022/09/16 17:15:23;;;;;;;;;;;;;;;13.60;78.88;98942.06;8314458;28;19956;-78
2022/09/16 17:19:25;;;;;;;;;;;;;;;13.48;78.81;98939.75;8317212;28;19926;-78
2022/09/16 17:23:27;;;;;;;;;;;;;;;13.38;77.51;98946.06;8317755;28;20035;-78
2022/09/16 17:27:29;;;;;;;;;;;;;;;13.21;78.51;98939.47;8301709;28;19925;-78
2022/09/16 17:31:31;;;;;;;;;;;;;;;13.07;78.97;98938.88;8313867;28;20328;-78
2022/09/16 17:35:33;;;;;;;;;;;;;;;12.92;79.40;98936.59;8308423;28;19924;-78
2022/09/16 17:39:41;;;;;;;;;;;;;;;12.77;81.03;98937.81;8305605;28;19931;-77
2022/09/16 17:43:48;;;;;;;;;;;;;;;12.65;81.99;98944.13;8301603;28;19983;-77
2022/09/16 17:47:49;;;;;;;;;;;;;;;12.55;81.46;98944.31;8327046;28;19984;-77
2022/09/16 17:51:54;;;;;;;;;;;;;;;12.55;81.04;98946.91;8319867;28;20016;-76
2022/09/16 17:56:09;;;;;;;;;;;;;;;12.48;81.38;98951.41;8303779;28;21079;-76
2022/09/16 18:00:18;;;;;;;;;;;;;;;12.46;83.55;98954.91;8308780;28;19929;-76
2022/09/16 18:04:27;;;;;;;;;;;;;;;12.36;85.10;98960.28;8326676;28;20810;-76
2022/09/16 18:08:28;;;;;;;;;;;;;;;12.31;85.57;98969.06;8318965;28;19929;-77
2022/09/16 18:12:29;;;;;;;;;;;;;;;12.26;85.50;98965.72;8327727;28;19925;-76
2022/09/16 18:16:38;;;;;;;;;;;;;;;12.21;83.99;98973.59;8319596;28;20278;-76
2022/09/16 18:20:42;;;;;;;;;;;;;;;12.12;83.22;98978.09;8294282;28;20325;-77
2022/09/16 18:24:44;;;;;;;;;;;;;;;11.94;84.17;98972.31;8306968;28;19933;-77
2022/09/16 18:28:46;;;;;;;;;;;;;;;11.81;85.50;98973.41;8304272;28;19964;-77
2022/09/16 18:33:08;;;;;;;;;;;;;;;11.57;85.94;98979.81;8308926;28;19925;-77
2022/09/16 18:37:10;;;;;;;;;;;;;;;11.55;86.50;98983.31;8311441;28;20392;-77
2022/09/16 18:41:15;;;;;;;;;;;;;;;11.53;86.59;98980.75;8314227;28;19933;-76
2022/09/16 18:45:17;;;;;;;;;;;;;;;11.49;86.08;98979.94;8293533;28;19991;-77
2022/09/16 18:49:20;;;;;;;;;;;;;;;11.57;85.97;98982.41;8303750;28;19959;-76
2022/09/16 18:53:22;;;;;;;;;;;;;;;11.53;85.84;98980.75;8314168;28;19929;-77
2022/09/16 18:57:23;;;;;;;;;;;;;;;11.52;86.81;98988.56;8324379;28;20485;-76
2022/09/16 19:01:27;;;;;;;;;;;;;;;11.51;86.04;98977.31;8315073;28;20015;-77
2022/09/16 19:05:28;;;;;;;;;;;;;;;11.41;85.27;98981.78;8316261;28;19932;-76
2022/09/16 19:09:30;;;;;;;;;;;;;;;11.44;85.86;98980.88;8320891;28;19999;-76
2022/09/16 19:13:32;;;;;;;;;;;;;;;11.39;85.74;98988.75;8319721;28;19929;-76
2022/09/16 19:17:40;;;;;;;;;;;;;;;11.41;85.75;98994.78;8300916;28;19956;-76
2022/09/16 19:21:42;;;;;;;;;;;;;;;11.37;85.37;99000.06;8315719;28;19925;-76
2022/09/16 19:25:43;;;;;;;;;;;;;;;11.29;85.32;99002.72;8311981;28;20350;-76
2022/09/16 19:29:44;;;;;;;;;;;;;;;11.24;85.43;98995.88;8319435;28;19929;-76
2022/09/16 19:33:54;;;;;;;;;;;;;;;11.22;85.73;98997.66;8311292;28;19994;-77
2022/09/16 19:37:55;;;;;;;;;;;;;;;11.19;86.02;98999.41;8333423;28;19935;-77
2022/09/16 19:42:01;;;;;;;;;;;;;;;11.23;86.49;98995.03;8334509;28;19925;-76
2022/09/16 19:46:07;;;;;;;;;;;;;;;11.28;86.38;98995.81;8322540;28;19986;-76
2022/09/16 19:50:15;;;;;;;;;;;;;;;11.30;86.77;99011.38;8322759;28;20350;-77
2022/09/16 19:54:16;;;;;;;;;;;;;;;11.32;87.12;99012.25;8330393;28;19925;-77
2022/09/16 19:58:18;;;;;;;;;;;;;;;11.35;87.24;99013.06;8333321;28;19924;-77
2022/09/16 20:02:19;;;;;;;;;;;;;;;11.41;87.05;99023.38;8295064;28;20381;-76
2022/09/16 20:06:22;;;;;;;;;;;;;;;11.43;87.56;99026.81;8313403;28;19925;-76
2022/09/16 20:10:23;;;;;;;;;;;;;;;11.43;86.65;99024.22;8334327;28;19988;-76
2022/09/16 20:14:32;;;;;;;;;;;;;;;11.41;86.67;99033.78;8334583;28;19932;-77
2022/09/16 20:18:34;;;;;;;;;;;;;;;11.38;86.92;99030.34;8316274;28;19925;-76
2022/09/16 20:22:36;;;;;;;;;;;;;;;11.33;87.75;99035.63;8337500;28;20019;-76
2022/09/16 20:26:37;;;;;;;;;;;;;;;11.31;86.26;99027.00;8324229;28;20405;-76
2022/09/16 20:30:39;;;;;;;;;;;;;;;11.26;85.84;99026.16;8324520;28;20653;-76
2022/09/16 20:34:40;;;;;;;;;;;;;;;11.25;84.25;99029.66;8342371;28;19924;-76
2022/09/16 20:38:42;;;;;;;;;;;;;;;11.22;83.13;99036.63;8331928;28;19920;-81
2022/09/16 20:42:43;;;;;;;;;;;;;;;11.22;82.68;99036.63;8334172;28;19925;-78
2022/09/16 20:46:52;;;;;;;;;;;;;;;11.26;82.25;99036.56;8348797;28;19929;-80
2022/09/16 20:50:53;;;;;;;;;;;;;;;11.24;81.21;99040.94;8346254;28;19921;-79
2022/09/16 20:54:54;;;;;;;;;;;;;;;11.24;80.01;99046.13;8337587;28;19929;-79
2022/09/16 20:58:57;;;;;;;;;;;;;;;11.21;79.03;99048.78;8334075;28;20372;-79
2022/09/16 21:02:59;;;;;;;;;;;;;;;11.13;79.04;99054.06;8348853;28;19925;-80
2022/09/16 21:07:07;;;;;;;;;;;;;;;11.03;79.41;99051.59;8349811;28;20490;-79
2022/09/16 21:11:14;;;;;;;;;;;;;;;11.02;78.43;99053.34;8315992;28;20279;-79
2022/09/16 21:15:15;;;;;;;;;;;;;;;11.02;78.13;99055.06;8349046;28;20011;-79
2022/09/16 21:19:17;;;;;;;;;;;;;;;11.00;77.81;99072.41;8348660;28;19958;-80
2022/09/16 21:23:26;;;;;;;;;;;;;;;10.92;78.76;99069.03;8351512;28;19935;-79
2022/09/16 21:27:34;;;;;;;;;;;;;;;10.82;79.37;99069.13;8352771;28;19934;-79